Time;durP1;ratioP1;P1;durP2;ratioP2;P2;SDS_P1;SDS_P2;PMS_P1;PMS_P2;Temp;Humidity;BMP_temperature;BMP_pressure;BME280_temperature;BME280_humidity;BME280_pressure;Samples;Min_cycle;Max_cycle;Signal;HPM_P1;HPM_P2
2021/10/05 00:01:45;;;;;;;28.10;16.50;;;;;;;12.49;72.22;100437.42;112976;1212;138376;-72
2021/10/05 00:06:10;;;;;;;26.80;14.70;;;;;;;12.46;72.19;100435.11;112003;1215;109719;-72
2021/10/05 00:09:42;;;;;;;;;;;;;;;;;;;;;
2021/10/05 00:25:49;;;;;;;24.50;14.00;;;;;;;12.27;72.69;100436.88;113853;1201;137288;-74
2021/10/05 00:29:42;;;;;;;23.00;14.90;;;;;;;12.22;72.67;100435.31;113640;1206;107965;-74
2021/10/05 00:37:46;;;;;;;;;;;;;;;;;;;;;
2021/10/05 00:42:19;;;;;;;24.20;14.80;;;;;;;12.16;73.26;100431.33;113307;1211;93146;-74
2021/10/05 00:46:35;;;;;;;24.20;15.00;;;;;;;12.15;72.89;100425.44;111507;1210;638076;-74
2021/10/05 00:50:42;;;;;;;28.20;15.90;;;;;;;12.09;73.00;100426.86;112568;1199;137904;-75
2021/10/05 00:54:40;;;;;;;25.80;15.60;;;;;;;12.05;73.05;100431.89;112064;1207;94092;-73
2021/10/05 00:58:49;;;;;;;21.50;14.60;;;;;;;12.03;73.22;100433.03;112501;1207;106107;-74
2021/10/05 01:03:20;;;;;;;25.40;15.80;;;;;;;12.00;73.32;100425.09;113184;1211;137966;-74
2021/10/05 01:11:31;;;;;;;;;;;;;;;;;;;;;
2021/10/05 01:15:22;;;;;;;;;;;;;;;;;;;;;
2021/10/05 01:19:12;;;;;;;;;;;;;;;11.85;73.42;100417.79;112083;1206;107634;-73
2021/10/05 01:23:10;;;;;;;29.30;16.10;;;;;;;11.80;73.66;100415.85;112020;1206;124138;-73
2021/10/05 01:31:22;;;;;;;;;;;;;;;;;;;;;
2021/10/05 01:35:22;;;;;;;;;;;;;;;;;;;;;
2021/10/05 01:39:52;;;;;;;28.00;15.40;;;;;;;11.59;74.24;100417.79;110659;1223;137800;-74
2021/10/05 01:43:48;;;;;;;24.50;15.50;;;;;;;11.57;74.14;100407.73;112695;1208;635585;-73
2021/10/05 01:51:21;;;;;;;;;;;;;;;;;;;;;
2021/10/05 01:55:22;;;;;;;;;;;;;;;;;;;;;
2021/10/05 01:59:31;;;;;;;29.40;16.40;;;;;;;11.43;74.80;100413.94;113667;1204;138388;-74
2021/10/05 02:03:40;;;;;;;23.00;14.60;;;;;;;11.39;74.69;100413.37;113645;1204;137879;-74
2021/10/05 02:11:26;;;;;;;27.40;16.20;;;;;;;11.39;74.97;100402.06;111474;1211;656641;-75
2021/10/05 02:15:13;;;;;;;;;;;;;;;11.34;74.98;100404.34;112703;1202;137496;-76
2021/10/05 02:23:15;;;;;;;25.60;14.80;;;;;;;11.26;75.19;100407.70;113413;1207;136913;-75
2021/10/05 02:27:40;;;;;;;26.10;16.00;;;;;;;11.23;75.25;100409.04;113086;1209;107599;-74
2021/10/05 02:31:46;;;;;;;27.40;16.20;;;;;;;11.19;75.58;100408.63;111736;1214;109534;-72
2021/10/05 02:35:46;;;;;;;24.90;15.60;;;;;;;11.17;75.42;100401.75;111262;1221;138028;-75
2021/10/05 02:39:35;;;;;;;;;;;;;;;;;;;;;
2021/10/05 02:43:44;;;;;;;27.60;16.20;;;;;;;11.14;75.50;100406.90;114567;1196;92698;-76
2021/10/05 02:47:52;;;;;;;26.50;15.90;;;;;;;11.12;75.29;100405.02;114412;1196;138021;-74
2021/10/05 02:51:43;;;;;;;25.90;16.00;;;;;;;11.07;75.41;100403.28;113339;1198;107611;-73
2021/10/05 02:55:52;;;;;;;26.90;15.40;;;;;;;11.03;75.54;100398.20;113324;1198;108138;-74
2021/10/05 03:03:52;;;;;;;;;;;;;;;;;;;;;
2021/10/05 03:07:51;;;;;;;;;;;;;;;;;;;;;
2021/10/05 03:11:46;;;;;;;25.80;14.90;;;;;;;10.97;75.76;100389.86;113627;1205;136965;-75
2021/10/05 03:15:54;;;;;;;27.70;15.90;;;;;;;10.97;75.59;100391.60;112324;1209;108413;-74
2021/10/05 03:20:16;;;;;;;28.50;15.90;;;;;;;10.97;75.49;100400.13;111711;1211;137387;-73
2021/10/05 03:28:14;;;;;;;31.00;17.30;;;;;;;10.94;75.39;100393.93;112983;1214;94898;-73
2021/10/05 03:35:55;;;;;;;24.40;14.40;;;;;;;10.89;75.63;100401.77;112740;1217;138550;-73
2021/10/05 03:40:25;;;;;;;24.50;15.10;;;;;;;10.87;75.41;100388.75;111637;1213;109595;-73
2021/10/05 03:44:32;;;;;;;;;;;;;;;;;;;;;
2021/10/05 03:48:05;;;;;;;;;;;;;;;;;;;;;
2021/10/05 03:56:27;;;;;;;25.50;15.20;;;;;;;10.80;75.55;100385.01;110861;1222;138439;-73
2021/10/05 04:04:38;;;;;;;31.50;14.50;;;;;;;10.73;75.68;100381.88;111077;1222;94904;-71
2021/10/05 04:07:53;;;;;;;;;;;;;;;;;;;;;
2021/10/05 04:12:25;;;;;;;23.00;14.40;;;;;;;10.73;75.56;100379.64;111957;1203;638220;-73
2021/10/05 04:16:34;;;;;;;29.00;14.60;;;;;;;10.72;75.65;100383.67;112339;1204;94588;-73
2021/10/05 04:20:42;;;;;;;26.10;15.40;;;;;;;10.74;75.54;100377.17;112009;1210;137328;-73
2021/10/05 04:24:50;;;;;;;26.20;14.00;;;;;;;10.75;75.59;100373.30;111717;1210;137393;-73
2021/10/05 04:33:21;;;;;;;27.40;14.30;;;;;;;10.75;75.38;100368.59;112857;1215;107390;-75
2021/10/05 04:44:43;;;;;;;25.70;14.40;;;;;;;10.67;75.41;100377.57;112530;1218;137174;-75
2021/10/05 04:48:35;;;;;;;;;;;;;;;;;;;;;
2021/10/05 04:52:58;;;;;;;25.60;14.50;;;;;;;10.68;75.36;100385.34;111758;1200;636652;-74
2021/10/05 05:01:16;;;;;;;22.10;13.00;;;;;;;10.65;75.44;100377.98;112439;1205;94641;-73
2021/10/05 05:05:34;;;;;;;;;;;;;;;;;;;;;
2021/10/05 05:09:21;;;;;;;27.70;14.20;;;;;;;10.75;75.33;100368.97;111521;1208;635021;-74
2021/10/05 05:13:23;;;;;;;20.80;12.90;;;;;;;10.78;75.09;100371.00;113204;1200;94258;-74
2021/10/05 05:17:31;;;;;;;22.80;12.70;;;;;;;10.83;74.81;100372.20;112577;1201;94125;-73
2021/10/05 05:21:38;;;;;;;24.00;12.40;;;;;;;10.88;74.78;100372.52;111840;1208;137013;-73
2021/10/05 05:30:18;;;;;;;23.00;12.70;;;;;;;11.08;74.12;100376.42;111698;1221;109455;-73
2021/10/05 05:38:27;;;;;;;;;;;;;;;;;;;;;
2021/10/05 05:42:27;;;;;;;23.40;12.00;;;;;;;11.75;71.88;100385.55;112813;1197;94382;-74
2021/10/05 05:45:56;;;;;;;23.00;12.50;;;;;;;12.06;70.84;100383.73;112647;1200;137263;-74
2021/10/05 05:50:06;;;;;;;19.70;11.60;;;;;;;12.45;69.76;100385.96;112781;1203;108148;-77
2021/10/05 05:53:54;;;;;;;23.10;11.10;;;;;;;13.03;68.18;100384.78;112723;1202;108105;-76
2021/10/05 06:01:44;;;;;;;;;;;;;;;;;;;;;
2021/10/05 06:06:33;;;;;;;20.40;11.50;;;;;;;15.42;61.54;100379.63;111756;1212;137131;-75
2021/10/05 06:14:46;;;;;;;18.60;10.50;;;;;;;16.09;57.44;100380.94;111689;1218;109575;-76
2021/10/05 06:18:52;;;;;;;19.50;10.80;;;;;;;15.10;58.87;100380.33;111520;1222;137248;-74
2021/10/05 06:22:39;;;;;;;;;;;;;;;;;;;;;
2021/10/05 06:26:42;;;;;;;23.80;11.10;;;;;;;14.03;61.44;100377.59;112324;1203;94298;-77
2021/10/05 06:30:40;;;;;;;;;;;;;;;;;;;;;
2021/10/05 06:34:51;;;;;;;16.10;10.70;;;;;;;14.73;61.07;100361.11;112242;1203;137683;-77
2021/10/05 06:42:48;;;;;;;21.70;11.40;;;;;;;15.09;58.81;100350.45;112981;1213;137050;-79
2021/10/05 06:47:36;;;;;;;16.90;10.40;;;;;;;15.05;59.23;100357.63;113023;1213;138861;-79
2021/10/05 06:51:15;;;;;;;;;;;;;;;;;;;;;
2021/10/05 06:54:47;;;;;;;18.50;10.70;;;;;;;14.39;59.77;100354.09;111404;1217;137560;-75
2021/10/05 07:02:43;;;;;;;24.90;10.70;;;;;;;15.35;59.51;100341.44;112511;1215;108106;-76
2021/10/05 07:06:39;;;;;;;;;;;;;;;;;;;;;
2021/10/05 07:15:12;;;;;;;14.60;8.50;;;;;;;20.18;49.33;100334.26;111696;1212;111260;-77
2021/10/05 07:19:07;;;;;;;16.90;8.10;;;;;;;21.01;48.24;100329.02;111602;1208;137284;-73
2021/10/05 07:23:05;;;;;;;17.20;9.00;;;;;;;21.67;46.33;100333.57;111880;1210;108501;-74
2021/10/05 07:26:53;;;;;;;;;;;;;;;;;;;;;
2021/10/05 07:31:18;;;;;;;16.40;8.30;;;;;;;21.71;45.31;100330.07;113012;1212;137779;-75
2021/10/05 07:35:25;;;;;;;;;;;;;;;;;;;;;
2021/10/05 07:39:35;;;;;;;24.80;9.50;;;;;;;22.46;41.99;100339.04;111632;1216;109697;-75
2021/10/05 07:43:05;;;;;;;;;;;;;;;;;;;;;
2021/10/05 07:47:26;;;;;;;14.60;8.80;;;;;;;23.15;40.73;100334.14;111752;1217;95452;-75
2021/10/05 07:50:49;;;;;;;12.10;8.00;;;;;;;23.28;40.62;100323.99;112365;1219;137452;-77
2021/10/05 07:54:47;;;;;;;;;;;;;;;;;;;;;
2021/10/05 08:02:44;;;;;;;;;;;;;;;;;;;;;
2021/10/05 08:07:09;;;;;;;;;;;;;;;;;;;;;
2021/10/05 08:11:23;;;;;;;17.20;7.70;;;;;;;24.87;38.26;100322.92;113424;1198;94065;-80
2021/10/05 08:14:44;;;;;;;;;;;;;;;;;;;;;
2021/10/05 08:18:26;;;;;;;13.00;7.10;;;;;;;24.79;37.05;100310.34;113837;1202;137215;-80
2021/10/05 08:21:46;;;;;;;11.40;8.00;;;;;;;24.71;36.75;100301.05;113966;1203;108501;-81
2021/10/05 08:25:45;;;;;;;11.50;8.40;;;;;;;24.65;37.35;100299.11;112967;1203;136849;-82
2021/10/05 08:33:21;;;;;;;17.60;8.00;;;;;;;24.64;37.26;100299.02;112618;1206;94199;-77
2021/10/05 08:37:15;;;;;;;14.30;7.70;;;;;;;24.73;36.69;100300.88;112332;1206;106227;-78
2021/10/05 08:40:32;;;;;;;17.20;7.80;;;;;;;24.37;36.60;100304.47;113993;1203;108763;-78
2021/10/05 08:47:49;;;;;;;11.20;8.10;;;;;;;23.98;37.18;100305.05;113349;1209;92995;-76
2021/10/05 08:50:40;;;;;;;11.20;7.70;;;;;;;23.93;37.40;100314.19;112058;1174;136915;-76
2021/10/05 08:53:30;;;;;;;17.50;7.60;;;;;;;24.07;37.74;100311.41;114028;1197;110077;-77
2021/10/05 08:56:17;;;;;;;12.50;7.60;;;;;;;24.37;38.30;100302.53;114200;1195;137743;-77
2021/10/05 08:59:05;;;;;;;18.50;8.20;;;;;;;24.63;37.27;100300.69;114348;1196;108529;-78
2021/10/05 09:01:53;;;;;;;14.80;7.50;;;;;;;24.60;37.04;100292.46;114299;1196;137004;-78
2021/10/05 09:04:43;;;;;;;13.90;7.90;;;;;;;24.54;36.85;100291.37;112860;1196;94859;-76
2021/10/05 09:07:30;;;;;;;11.20;7.60;;;;;;;24.62;37.51;100289.42;114362;1196;137262;-72
2021/10/05 09:10:20;;;;;;;12.10;6.90;;;;;;;25.03;37.56;100289.27;114422;1196;107594;-78
2021/10/05 09:13:07;;;;;;;13.80;7.60;;;;;;;25.53;37.22;100291.15;114193;1196;137701;-74
2021/10/05 09:15:58;;;;;;;14.60;7.90;;;;;;;25.62;35.15;100299.23;114215;1196;93235;-75
2021/10/05 09:19:00;;;;;;;15.50;7.50;;;;;;;25.08;35.36;100276.32;114216;1196;93209;-75
2021/10/05 09:21:53;;;;;;;17.30;7.90;;;;;;;24.91;36.28;100274.70;113901;1195;109882;-75
2021/10/05 09:24:43;;;;;;;13.50;6.90;;;;;;;24.85;36.39;100281.48;112836;1196;109261;-76
2021/10/05 09:27:30;;;;;;;13.10;7.50;;;;;;;24.75;36.75;100283.98;112677;1196;137049;-75
2021/10/05 09:30:19;;;;;;;16.40;7.20;;;;;;;24.78;37.09;100278.52;113520;1196;94889;-76
2021/10/05 09:33:08;;;;;;;14.00;7.30;;;;;;;24.95;36.83;100263.08;112550;1196;137225;-74
2021/10/05 09:35:56;;;;;;;11.40;7.30;;;;;;;24.75;36.17;100258.58;114334;1195;110570;-76
2021/10/05 09:38:44;;;;;;;16.50;7.90;;;;;;;24.55;36.80;100261.23;114248;1196;136952;-76
2021/10/05 09:41:31;;;;;;;13.20;6.80;;;;;;;24.51;36.91;100253.45;114559;1195;108648;-77
2021/10/05 09:44:25;;;;;;;15.60;7.20;;;;;;;24.11;37.03;100251.88;114171;1196;137859;-76
2021/10/05 09:47:12;;;;;;;12.70;7.30;;;;;;;23.31;37.68;100250.15;113110;1195;94825;-75
2021/10/05 09:50:04;;;;;;;13.60;8.10;;;;;;;22.52;38.71;100265.19;114471;1195;137795;-75
2021/10/05 09:52:53;;;;;;;12.50;8.30;;;;;;;21.97;40.15;100254.23;113356;1195;107675;-75
2021/10/05 09:55:47;;;;;;;23.20;8.20;;;;;;;21.84;40.59;100253.14;114305;1195;137196;-74
2021/10/05 09:58:37;;;;;;;11.40;7.60;;;;;;;21.76;40.90;100253.47;113047;1195;94934;-73
2021/10/05 10:01:27;;;;;;;11.90;8.10;;;;;;;21.93;41.26;100249.90;114356;1195;137079;-73
2021/10/05 10:04:16;;;;;;;13.20;8.10;;;;;;;22.15;40.82;100246.27;113296;1192;109664;-74
2021/10/05 10:07:06;;;;;;;14.10;8.10;;;;;;;22.13;40.59;100252.80;114561;1195;107991;-74
2021/10/05 10:09:53;;;;;;;14.60;8.10;;;;;;;22.10;40.94;100248.63;114465;1195;137257;-74
2021/10/05 10:12:47;;;;;;;12.70;8.00;;;;;;;22.17;40.54;100247.73;114575;1196;93088;-74
2021/10/05 10:15:37;;;;;;;17.00;8.00;;;;;;;22.13;40.62;100239.14;113517;1195;138391;-74
2021/10/05 10:18:24;;;;;;;13.90;8.00;;;;;;;22.08;40.76;100241.86;114652;1195;110256;-74
2021/10/05 10:21:12;;;;;;;16.00;8.60;;;;;;;22.14;40.73;100237.67;114107;1193;137111;-74
2021/10/05 10:24:18;;;;;;;20.20;9.40;;;;;;;21.96;40.96;100241.59;113138;1195;108512;-74
2021/10/05 10:27:05;;;;;;;18.90;10.10;;;;;;;21.95;40.73;100249.20;114240;1195;137668;-73
2021/10/05 10:30:13;;;;;;;17.60;9.10;;;;;;;21.69;41.17;100247.90;114580;1195;94052;-74
2021/10/05 10:33:04;;;;;;;25.90;9.50;;;;;;;21.62;41.49;100253.45;113246;1195;136791;-75
2021/10/05 10:35:56;;;;;;;17.00;9.10;;;;;;;21.51;41.81;100252.35;113124;1195;107882;-74
2021/10/05 10:38:45;;;;;;;12.70;8.10;;;;;;;21.41;42.22;100245.02;113002;1195;137527;-75
2021/10/05 10:41:33;;;;;;;18.90;9.20;;;;;;;21.37;42.84;100248.52;113201;1195;95311;-75
2021/10/05 10:44:29;;;;;;;13.60;8.70;;;;;;;21.33;42.54;100239.10;114002;1193;136992;-69
2021/10/05 10:47:19;;;;;;;15.10;9.10;;;;;;;21.29;42.90;100242.71;113972;1194;109566;-72
2021/10/05 10:50:08;;;;;;;14.80;8.80;;;;;;;21.28;43.06;100225.69;114415;1195;137367;-77
2021/10/05 10:53:05;;;;;;;13.00;8.60;;;;;;;21.34;43.24;100230.01;113538;1186;107076;-75
2021/10/05 10:55:54;;;;;;;13.60;9.00;;;;;;;21.31;43.15;100230.02;113001;1195;138595;-75
2021/10/05 10:58:45;;;;;;;14.70;8.30;;;;;;;21.31;43.31;100229.11;113820;1195;94811;-75
2021/10/05 11:01:49;;;;;;;13.30;8.80;;;;;;;21.13;43.25;100224.98;113012;1195;137242;-76
2021/10/05 11:04:37;;;;;;;15.10;8.30;;;;;;;20.97;43.91;100222.83;114338;1195;109479;-71
2021/10/05 11:07:32;;;;;;;12.80;8.70;;;;;;;21.05;44.13;100224.23;113130;1195;108671;-72
2021/10/05 11:10:28;;;;;;;13.80;8.20;;;;;;;21.10;44.07;100221.33;113465;1195;94807;-67
2021/10/05 11:13:15;;;;;;;15.80;9.00;;;;;;;21.09;44.15;100218.08;114569;1195;93574;-84
2021/10/05 11:16:03;;;;;;;12.80;8.80;;;;;;;21.03;44.39;100217.31;113069;1195;137178;-74
2021/10/05 11:19:02;;;;;;;18.90;9.30;;;;;;;20.98;44.20;100214.30;114607;1195;108103;-77
2021/10/05 11:21:49;;;;;;;19.80;8.80;;;;;;;20.90;44.54;100217.37;113046;1195;137318;-72
2021/10/05 11:24:47;;;;;;;14.70;8.60;;;;;;;20.89;44.54;100202.31;113163;1195;95591;-75
2021/10/05 11:27:35;;;;;;;16.30;8.20;;;;;;;20.87;44.96;100192.20;112994;1197;137169;-75
2021/10/05 11:30:24;;;;;;;16.40;8.60;;;;;;;20.88;44.87;100191.27;114679;1195;109147;-77
2021/10/05 11:33:24;;;;;;;16.90;9.20;;;;;;;20.84;44.42;100201.10;114577;1195;136110;-74
2021/10/05 11:36:15;;;;;;;14.50;9.30;;;;;;;20.74;44.46;100197.05;114006;1194;110851;-74
2021/10/05 11:39:04;;;;;;;15.80;8.90;;;;;;;20.70;44.69;100180.08;113126;1196;137208;-75
2021/10/05 11:41:55;;;;;;;11.90;8.00;;;;;;;20.65;45.08;100165.77;113170;1195;94865;-78
2021/10/05 11:44:49;;;;;;;20.40;8.60;;;;;;;20.69;45.20;100160.17;113102;1195;137182;-76
2021/10/05 11:47:36;;;;;;;18.00;9.10;;;;;;;20.70;45.03;100138.93;114686;1195;108611;-77
2021/10/05 11:50:25;;;;;;;16.90;8.20;;;;;;;20.63;45.16;100160.21;113635;1195;137327;-77
2021/10/05 11:53:13;;;;;;;15.70;9.50;;;;;;;20.62;45.26;100151.84;113325;1195;94850;-76
2021/10/05 11:56:09;;;;;;;20.00;8.60;;;;;;;20.64;45.50;100149.62;113189;1195;137304;-77
2021/10/05 11:59:00;;;;;;;16.80;7.90;;;;;;;20.73;45.55;100136.70;113368;1195;109596;-75
2021/10/05 12:01:48;;;;;;;18.90;8.60;;;;;;;20.85;45.62;100134.91;114455;1195;107635;-77
2021/10/05 12:04:38;;;;;;;19.50;8.80;;;;;;;20.93;45.42;100129.11;113550;1195;139071;-76
2021/10/05 12:07:26;;;;;;;17.70;9.20;;;;;;;21.00;45.43;100117.98;114662;1195;93084;-78
2021/10/05 12:10:14;;;;;;;19.40;9.70;;;;;;;20.98;45.32;100123.09;114244;1195;137722;-84
2021/10/05 12:13:01;;;;;;;17.10;8.90;;;;;;;20.96;44.89;100156.80;114624;1195;110037;-80
2021/10/05 12:15:49;;;;;;;17.90;9.30;;;;;;;20.91;45.11;100148.92;114548;1193;137142;-76
2021/10/05 12:18:36;;;;;;;13.30;8.80;;;;;;;20.91;45.22;100135.83;114636;1195;107585;-76
2021/10/05 12:21:23;;;;;;;21.30;9.60;;;;;;;20.90;45.12;100150.59;114487;1195;138016;-75
2021/10/05 12:24:10;;;;;;;16.90;9.20;;;;;;;20.84;44.97;100158.70;114689;1195;93969;-75
2021/10/05 12:26:57;;;;;;;22.30;9.10;;;;;;;20.83;45.35;100146.38;114528;1195;137198;-75
2021/10/05 12:29:55;;;;;;;18.60;9.40;;;;;;;20.84;45.07;100162.59;114668;1195;108076;-75
2021/10/05 12:32:52;;;;;;;14.30;8.50;;;;;;;20.79;45.11;100143.30;113082;1194;137741;-75
2021/10/05 12:35:41;;;;;;;18.40;9.00;;;;;;;20.77;45.45;100149.86;114603;1195;93152;-81
2021/10/05 12:38:35;;;;;;;17.30;9.20;;;;;;;20.73;45.48;100159.45;114596;1195;137175;-75
2021/10/05 12:41:23;;;;;;;21.00;8.50;;;;;;;20.80;45.87;100139.18;114586;1195;109388;-77
2021/10/05 12:44:18;;;;;;;18.20;10.10;;;;;;;20.87;45.71;100151.86;114678;1195;108520;-76
2021/10/05 12:47:08;;;;;;;18.00;9.50;;;;;;;20.89;45.21;100143.23;114620;1193;108688;-78
2021/10/05 12:49:55;;;;;;;23.10;9.10;;;;;;;20.86;45.66;100144.59;114640;1195;93360;-75
2021/10/05 12:52:50;;;;;;;18.00;9.60;;;;;;;20.85;45.60;100141.27;114486;1195;138186;-76
2021/10/05 12:55:38;;;;;;;20.30;9.60;;;;;;;20.83;45.61;100133.30;114676;1195;109744;-65
2021/10/05 12:58:26;;;;;;;18.80;9.50;;;;;;;20.76;45.88;100122.33;114590;1195;137616;-65
2021/10/05 13:01:15;;;;;;;18.20;8.90;;;;;;;20.71;45.96;100151.39;114547;1193;108611;-70
2021/10/05 13:04:03;;;;;;;21.50;9.50;;;;;;;20.61;46.03;100150.34;114451;1195;137560;-73
2021/10/05 13:06:50;;;;;;;23.80;9.70;;;;;;;20.47;46.09;100157.73;114723;1195;94248;-76
2021/10/05 13:09:37;;;;;;;20.60;9.40;;;;;;;20.40;46.69;100150.48;114549;1194;137223;-74
2021/10/05 13:12:24;;;;;;;23.70;8.70;;;;;;;20.35;46.55;100150.48;114642;1193;108780;-76
2021/10/05 13:15:12;;;;;;;15.20;9.20;;;;;;;20.30;46.70;100151.38;113867;1195;139359;-74
2021/10/05 13:18:02;;;;;;;;;;;;;;;20.26;46.93;100162.44;114743;1195;95120;-75
2021/10/05 13:20:50;;;;;;;13.70;8.30;;;;;;;20.22;47.13;100131.84;114469;1195;125273;-76
2021/10/05 13:23:36;;;;;;;;;;;;;;;20.22;47.37;100126.86;114632;1194;110411;-76
2021/10/05 13:26:23;;;;;;;17.80;8.70;;;;;;;20.24;47.56;100120.41;114645;1194;108671;-77
2021/10/05 13:29:10;;;;;;;21.80;9.40;;;;;;;20.26;47.27;100109.83;114522;1193;137678;-76
2021/10/05 13:31:58;;;;;;;14.20;8.10;;;;;;;20.26;47.42;100118.01;113339;1196;96270;-75
2021/10/05 13:34:47;;;;;;;15.10;8.30;;;;;;;20.27;47.63;100105.88;113219;1196;137468;-74
2021/10/05 13:37:38;;;;;;;18.40;7.90;;;;;;;20.27;47.44;100115.74;114053;1195;110655;-75
2021/10/05 13:40:43;;;;;;;14.60;7.60;;;;;;;20.23;47.51;100110.61;114409;1195;137357;-76
2021/10/05 13:43:32;;;;;;;20.30;8.50;;;;;;;20.22;47.72;100101.31;113113;1195;108890;-74
2021/10/05 13:46:19;;;;;;;18.30;8.00;;;;;;;20.24;47.58;100085.79;114435;1195;137330;-78
2021/10/05 13:49:06;;;;;;;18.50;7.70;;;;;;;20.23;47.45;100070.84;114616;1194;94480;-75
2021/10/05 13:51:53;;;;;;;13.60;7.90;;;;;;;20.23;47.42;100083.72;114532;1195;137264;-80
2021/10/05 13:54:40;;;;;;;18.20;8.00;;;;;;;20.22;47.52;100104.11;114408;1195;109871;-80
2021/10/05 13:57:27;;;;;;;15.30;7.50;;;;;;;20.19;47.65;100104.01;114302;1195;139147;-78
2021/10/05 14:00:17;;;;;;;17.20;7.30;;;;;;;20.17;47.68;100108.41;114377;1194;94700;-81
2021/10/05 14:03:04;;;;;;;13.90;7.90;;;;;;;20.14;47.74;100104.02;114209;1195;138525;-78
2021/10/05 14:05:54;;;;;;;10.70;7.90;;;;;;;20.11;47.99;100110.77;114393;1195;110906;-79
2021/10/05 14:08:41;;;;;;;16.50;7.70;;;;;;;20.09;48.14;100108.11;113856;1194;108895;-75
2021/10/05 14:11:29;;;;;;;17.80;7.30;;;;;;;20.06;48.13;100104.80;112669;1196;137384;-75
2021/10/05 14:14:16;;;;;;;;;;;;;;;20.03;47.96;100116.38;113106;1196;96160;-75
2021/10/05 14:17:04;;;;;;;18.10;8.40;;;;;;;19.98;48.13;100099.61;113081;1196;123625;-73
2021/10/05 14:19:51;;;;;;;14.70;8.30;;;;;;;19.93;48.37;100082.32;114614;1195;111080;-74
2021/10/05 14:22:39;;;;;;;15.60;8.60;;;;;;;19.89;48.58;100091.17;114562;1195;137381;-75
2021/10/05 14:25:26;;;;;;;15.50;7.90;;;;;;;19.90;48.70;100113.74;113342;1195;106223;-63
2021/10/05 14:28:15;;;;;;;15.80;8.20;;;;;;;19.87;48.69;100101.61;114191;1193;137485;-74
2021/10/05 14:31:02;;;;;;;15.30;8.40;;;;;;;19.84;48.67;100116.15;112876;1195;96145;-79
2021/10/05 14:33:50;;;;;;;15.10;7.90;;;;;;;19.78;48.79;100110.05;113126;1193;137738;-75
2021/10/05 14:36:38;;;;;;;16.20;8.60;;;;;;;19.73;48.88;100094.51;113120;1195;108040;-77
2021/10/05 14:39:25;;;;;;;9.90;7.30;;;;;;;19.70;49.24;100100.56;113011;1195;137957;-77
2021/10/05 14:42:13;;;;;;;17.40;8.30;;;;;;;19.66;49.32;100101.05;114644;1195;94477;-77
2021/10/05 14:45:00;;;;;;;13.60;8.20;;;;;;;19.59;49.53;100104.86;114600;1194;95517;-77
2021/10/05 14:47:47;;;;;;;13.30;7.90;;;;;;;19.54;49.58;100096.23;114528;1195;136940;-76
2021/10/05 14:50:35;;;;;;;17.50;8.30;;;;;;;19.49;49.75;100092.02;113862;1195;108570;-77
2021/10/05 14:53:23;;;;;;;18.20;7.80;;;;;;;19.44;49.76;100087.98;113361;1195;137423;-77
2021/10/05 14:56:11;;;;;;;14.90;7.70;;;;;;;19.38;49.94;100078.66;114429;1195;94610;-75
2021/10/05 14:58:58;;;;;;;16.90;8.00;;;;;;;19.33;50.02;100091.73;113217;1195;137326;-75
2021/10/05 15:01:46;;;;;;;15.10;7.50;;;;;;;19.27;50.08;100088.96;113254;1193;110900;-74
2021/10/05 15:04:34;;;;;;;19.00;7.90;;;;;;;19.23;50.21;100089.98;113463;1196;139008;-76
2021/10/05 15:07:21;;;;;;;;;;;;;;;19.17;50.21;100099.85;114665;1195;106798;-75
2021/10/05 15:10:10;;;;;;;14.80;7.40;;;;;;;19.12;50.48;100100.46;113198;1195;124529;-77
2021/10/05 15:12:58;;;;;;;18.30;7.20;;;;;;;19.06;50.60;100109.34;114347;1195;94231;-78
2021/10/05 15:15:45;;;;;;;14.80;8.60;;;;;;;19.00;50.95;100109.55;113107;1195;138273;-78
2021/10/05 15:18:35;;;;;;;17.20;7.30;;;;;;;18.93;50.96;100105.80;113131;1196;109527;-79
2021/10/05 15:21:23;;;;;;;14.30;7.20;;;;;;;18.84;51.20;100101.51;114679;1195;108556;-76
2021/10/05 15:24:10;;;;;;;18.90;8.00;;;;;;;18.76;51.43;100102.10;114234;1195;95350;-76
2021/10/05 15:26:58;;;;;;;17.70;7.30;;;;;;;18.66;51.48;100104.83;113141;1196;96475;-76
2021/10/05 15:29:45;;;;;;;;;;;;;;;18.58;51.67;100105.19;113289;1195;137121;-77
2021/10/05 15:32:35;;;;;;;14.90;7.10;;;;;;;18.46;51.54;100099.80;113124;1195;109021;-77
2021/10/05 15:35:24;;;;;;;19.60;7.20;;;;;;;18.37;51.93;100122.63;114593;1194;137958;-78
2021/10/05 15:38:11;;;;;;;19.80;7.50;;;;;;;18.27;52.27;100117.09;113315;1196;96271;-78
2021/10/05 15:40:59;;;;;;;14.70;7.30;;;;;;;18.18;52.24;100109.82;113109;1196;137381;-78
2021/10/05 15:43:46;;;;;;;14.70;6.30;;;;;;;18.10;52.42;100117.15;113250;1195;109887;-77
2021/10/05 15:46:33;;;;;;;20.40;7.00;;;;;;;18.02;52.58;100110.85;113937;1194;137624;-78
2021/10/05 15:49:21;;;;;;;12.30;7.20;;;;;;;17.93;52.75;100124.95;114644;1195;108464;-77
2021/10/05 15:52:25;;;;;;;16.80;6.80;;;;;;;17.86;52.84;100117.16;114487;1195;137490;-77
2021/10/05 15:55:16;;;;;;;12.40;6.40;;;;;;;17.77;52.89;100109.98;114599;1195;94574;-78
2021/10/05 15:58:04;;;;;;;13.70;7.30;;;;;;;17.71;53.17;100110.58;114457;1195;137344;-77
2021/10/05 16:00:50;;;;;;;12.20;6.90;;;;;;;17.64;53.22;100108.90;114482;1195;108579;-77
2021/10/05 16:03:39;;;;;;;17.90;7.20;;;;;;;17.58;53.21;100102.90;114355;1195;108395;-76
2021/10/05 16:06:26;;;;;;;17.00;6.90;;;;;;;17.51;53.37;100089.48;114298;1195;140598;-78
2021/10/05 16:09:13;;;;;;;13.90;7.20;;;;;;;17.46;53.33;100088.04;114412;1195;95631;-77
2021/10/05 16:12:00;;;;;;;19.30;6.90;;;;;;;17.40;53.56;100097.91;114360;1195;139112;-77
2021/10/05 16:14:47;;;;;;;12.30;6.40;;;;;;;17.34;53.55;100085.25;114409;1195;108447;-78
2021/10/05 16:17:35;;;;;;;14.50;6.60;;;;;;;17.28;53.69;100088.98;114312;1195;139587;-77
2021/10/05 16:20:22;;;;;;;15.50;6.50;;;;;;;17.23;53.72;100087.92;114292;1195;94738;-76
2021/10/05 16:23:09;;;;;;;23.90;6.80;;;;;;;17.17;53.77;100098.98;114201;1195;137302;-76
2021/10/05 16:25:56;;;;;;;16.60;6.40;;;;;;;17.12;53.88;100122.13;113176;1195;110721;-76
2021/10/05 16:28:45;;;;;;;15.10;6.50;;;;;;;17.09;53.86;100114.98;112748;1196;138066;-79
2021/10/05 16:31:34;;;;;;;11.50;6.00;;;;;;;17.05;53.90;100122.95;114467;1195;108579;-78
2021/10/05 16:34:22;;;;;;;15.80;6.40;;;;;;;17.00;54.06;100130.98;114270;1195;137981;-78
2021/10/05 16:37:16;;;;;;;19.60;7.00;;;;;;;16.94;54.00;100123.08;114459;1195;95116;-78
2021/10/05 16:40:04;;;;;;;17.30;6.40;;;;;;;16.88;54.09;100141.52;114468;1195;113159;-77
2021/10/05 16:42:51;;;;;;;12.90;6.10;;;;;;;16.84;54.09;100156.99;114459;1195;108765;-77
2021/10/05 16:45:41;;;;;;;13.20;6.40;;;;;;;16.81;54.08;100136.78;114377;1195;109582;-77
2021/10/05 16:48:28;;;;;;;;;;;;;;;16.78;54.12;100141.92;114323;1195;137715;-77
2021/10/05 16:51:15;;;;;;;16.10;6.20;;;;;;;16.73;54.12;100138.73;114432;1195;94843;-79
2021/10/05 16:54:02;;;;;;;12.70;6.60;;;;;;;16.70;54.16;100132.27;114305;1195;140045;-77
2021/10/05 16:56:51;;;;;;;13.50;6.20;;;;;;;16.66;54.12;100139.64;114442;1194;108995;-78
2021/10/05 16:59:38;;;;;;;25.10;7.00;;;;;;;16.63;54.16;100139.59;114242;1195;138647;-77
2021/10/05 17:02:25;;;;;;;12.70;6.40;;;;;;;16.60;54.07;100131.92;114416;1195;94563;-77
2021/10/05 17:05:14;;;;;;;10.40;6.00;;;;;;;16.56;53.99;100122.11;114271;1195;139558;-76
2021/10/05 17:08:00;;;;;;;14.20;6.80;;;;;;;16.54;54.00;100114.53;114398;1195;110692;-77
2021/10/05 17:10:48;;;;;;;12.20;5.80;;;;;;;16.50;54.01;100138.81;114337;1194;137536;-76
2021/10/05 17:13:35;;;;;;;13.70;6.50;;;;;;;16.46;53.89;100118.86;114413;1195;107775;-76
2021/10/05 17:16:22;;;;;;;14.10;6.10;;;;;;;16.43;53.80;100119.40;112942;1195;96313;-75
2021/10/05 17:19:09;;;;;;;14.90;6.20;;;;;;;16.40;53.47;100120.30;114451;1195;138975;-75
2021/10/05 17:21:57;;;;;;;15.50;6.80;;;;;;;16.37;53.29;100139.06;114589;1195;111600;-76